Terminal Aerodrome Forecast
Issued by NWS

Home | Current Version | Previous Version | Text Only | Print | Product List | Glossary On
Versions: 1 2 3 4 5 6 7 8 9 10 11 12 13 14
956
FTUS46 KPDT 291129
TAFBDN
TAF
KBDN 291129Z 2912/3012 21005KT P6SM SKC
     FM291800 02005KT P6SM SKC
     FM292200 36009G16KT P6SM SKC
     FM300700 22004KT P6SM SKC=

USA.gov is the U.S. government's official web portal to all federal, state and local government web resources and services.